sensor_id;sensor_type;location;lat;lon;timestamp;pressure;altitude;pressure_sealevel;temperature;humidity
19884;BME280;10104;50.732;10.174;2023-07-02T00:01:48;97014.28;;;17.89;100.00
19884;BME280;10104;50.732;10.174;2023-07-02T00:04:09;97009.78;;;18.00;100.00
19884;BME280;10104;50.732;10.174;2023-07-02T00:06:31;97014.34;;;17.99;100.00
19884;BME280;10104;50.732;10.174;2023-07-02T00:08:53;97015.19;;;18.05;100.00
19884;BME280;10104;50.732;10.174;2023-07-02T00:11:15;97020.47;;;17.95;100.00
19884;BME280;10104;50.732;10.174;2023-07-02T00:13:37;97022.38;;;17.99;100.00
19884;BME280;10104;50.732;10.174;2023-07-02T00:15:59;97030.91;;;17.96;100.00
19884;BME280;10104;50.732;10.174;2023-07-02T00:18:20;97033.28;;;17.88;100.00
19884;BME280;10104;50.732;10.174;2023-07-02T00:20:42;97036.22;;;17.91;100.00
19884;BME280;10104;50.732;10.174;2023-07-02T00:23:04;97039.13;;;17.85;100.00
19884;BME280;10104;50.732;10.174;2023-07-02T00:25:26;97042.75;;;17.68;100.00
19884;BME280;10104;50.732;10.174;2023-07-02T00:27:47;97050.91;;;17.57;100.00
19884;BME280;10104;50.732;10.174;2023-07-02T00:30:09;97044.91;;;17.45;100.00
19884;BME280;10104;50.732;10.174;2023-07-02T00:32:31;97044.84;;;17.39;100.00
19884;BME280;10104;50.732;10.174;2023-07-02T00:34:52;97054.03;;;17.49;100.00
19884;BME280;10104;50.732;10.174;2023-07-02T00:37:14;97050.59;;;17.53;100.00
19884;BME280;10104;50.732;10.174;2023-07-02T00:39:36;97050.78;;;17.47;100.00
19884;BME280;10104;50.732;10.174;2023-07-02T00:42:02;97045.44;;;17.47;100.00
19884;BME280;10104;50.732;10.174;2023-07-02T00:44:24;97038.38;;;17.35;100.00
19884;BME280;10104;50.732;10.174;2023-07-02T00:46:46;97036.25;;;17.37;100.00
19884;BME280;10104;50.732;10.174;2023-07-02T00:49:07;97030.34;;;17.35;100.00
19884;BME280;10104;50.732;10.174;2023-07-02T00:51:29;97042.91;;;17.35;100.00
19884;BME280;10104;50.732;10.174;2023-07-02T00:53:53;97042.25;;;17.23;100.00
19884;BME280;10104;50.732;10.174;2023-07-02T00:56:16;97033.59;;;17.16;100.00
19884;BME280;10104;50.732;10.174;2023-07-02T00:58:40;97041.03;;;17.09;100.00
19884;BME280;10104;50.732;10.174;2023-07-02T01:01:02;97033.25;;;17.07;100.00
19884;BME280;10104;50.732;10.174;2023-07-02T01:03:24;97027.38;;;17.10;100.00
19884;BME280;10104;50.732;10.174;2023-07-02T01:05:46;97037.84;;;17.12;100.00
19884;BME280;10104;50.732;10.174;2023-07-02T01:08:08;97037.78;;;17.07;100.00
19884;BME280;10104;50.732;10.174;2023-07-02T01:10:29;97038.56;;;17.02;100.00
19884;BME280;10104;50.732;10.174;2023-07-02T01:12:53;97035.16;;;17.12;100.00
19884;BME280;10104;50.732;10.174;2023-07-02T01:15:15;97043.94;;;17.07;100.00
19884;BME280;10104;50.732;10.174;2023-07-02T01:17:37;97043.56;;;16.98;100.00
19884;BME280;10104;50.732;10.174;2023-07-02T01:20:04;97040.91;;;16.98;100.00
19884;BME280;10104;50.732;10.174;2023-07-02T01:22:28;97042.41;;;16.89;100.00
19884;BME280;10104;50.732;10.174;2023-07-02T01:24:51;97043.22;;;16.90;100.00
19884;BME280;10104;50.732;10.174;2023-07-02T01:27:13;97040.53;;;16.90;100.00
19884;BME280;10104;50.732;10.174;2023-07-02T01:29:36;97035.81;;;16.97;100.00
19884;BME280;10104;50.732;10.174;2023-07-02T01:32:00;97035.50;;;16.93;100.00
19884;BME280;10104;50.732;10.174;2023-07-02T01:34:22;97033.56;;;16.89;100.00
19884;BME280;10104;50.732;10.174;2023-07-02T01:36:44;97041.59;;;16.89;100.00
19884;BME280;10104;50.732;10.174;2023-07-02T01:39:06;97050.03;;;16.81;100.00
19884;BME280;10104;50.732;10.174;2023-07-02T01:41:27;97049.47;;;16.79;100.00
19884;BME280;10104;50.732;10.174;2023-07-02T01:43:49;97052.72;;;16.81;100.00
19884;BME280;10104;50.732;10.174;2023-07-02T01:46:10;97053.66;;;16.70;100.00
19884;BME280;10104;50.732;10.174;2023-07-02T01:48:32;97054.22;;;16.72;100.00
19884;BME280;10104;50.732;10.174;2023-07-02T01:50:53;97050.91;;;16.65;100.00
19884;BME280;10104;50.732;10.174;2023-07-02T01:53:15;97048.06;;;16.71;100.00
19884;BME280;10104;50.732;10.174;2023-07-02T01:55:36;97061.84;;;16.63;100.00
19884;BME280;10104;50.732;10.174;2023-07-02T01:57:59;97064.56;;;16.68;100.00
19884;BME280;10104;50.732;10.174;2023-07-02T02:00:20;97060.22;;;16.62;100.00
19884;BME280;10104;50.732;10.174;2023-07-02T02:02:42;97066.88;;;16.43;100.00
19884;BME280;10104;50.732;10.174;2023-07-02T02:05:05;97065.00;;;16.43;100.00
19884;BME280;10104;50.732;10.174;2023-07-02T02:07:26;97069.06;;;16.46;100.00
19884;BME280;10104;50.732;10.174;2023-07-02T02:09:48;97070.09;;;16.45;100.00
19884;BME280;10104;50.732;10.174;2023-07-02T02:12:10;97080.63;;;16.51;100.00
19884;BME280;10104;50.732;10.174;2023-07-02T02:14:32;97078.69;;;16.47;100.00
19884;BME280;10104;50.732;10.174;2023-07-02T02:16:53;97076.25;;;16.45;100.00
19884;BME280;10104;50.732;10.174;2023-07-02T02:19:15;97086.16;;;16.45;100.00
19884;BME280;10104;50.732;10.174;2023-07-02T02:21:37;97091.78;;;16.48;100.00
19884;BME280;10104;50.732;10.174;2023-07-02T02:23:58;97100.47;;;16.39;100.00
19884;BME280;10104;50.732;10.174;2023-07-02T02:26:21;97100.56;;;16.44;100.00
19884;BME280;10104;50.732;10.174;2023-07-02T02:28:43;97094.03;;;16.35;100.00
19884;BME280;10104;50.732;10.174;2023-07-02T02:31:05;97094.09;;;16.40;100.00
19884;BME280;10104;50.732;10.174;2023-07-02T02:33:26;97089.78;;;16.39;100.00
19884;BME280;10104;50.732;10.174;2023-07-02T02:35:48;97098.69;;;16.44;100.00
19884;BME280;10104;50.732;10.174;2023-07-02T02:38:10;97099.50;;;16.45;100.00
19884;BME280;10104;50.732;10.174;2023-07-02T02:40:32;97096.25;;;16.43;100.00
19884;BME280;10104;50.732;10.174;2023-07-02T02:42:53;97088.56;;;16.46;100.00
19884;BME280;10104;50.732;10.174;2023-07-02T02:45:15;97097.06;;;16.43;100.00
19884;BME280;10104;50.732;10.174;2023-07-02T02:47:36;97094.41;;;16.43;100.00
19884;BME280;10104;50.732;10.174;2023-07-02T02:49:59;97099.75;;;16.43;100.00
19884;BME280;10104;50.732;10.174;2023-07-02T02:52:20;97097.25;;;16.37;100.00
19884;BME280;10104;50.732;10.174;2023-07-02T02:54:42;97094.09;;;16.40;100.00
19884;BME280;10104;50.732;10.174;2023-07-02T02:57:03;97097.13;;;16.48;100.00
19884;BME280;10104;50.732;10.174;2023-07-02T02:59:25;97106.25;;;16.47;100.00
19884;BME280;10104;50.732;10.174;2023-07-02T03:01:46;97097.94;;;16.49;100.00
19884;BME280;10104;50.732;10.174;2023-07-02T03:04:08;97098.75;;;16.49;100.00
19884;BME280;10104;50.732;10.174;2023-07-02T03:06:30;97102.75;;;16.47;100.00
19884;BME280;10104;50.732;10.174;2023-07-02T03:08:51;97101.13;;;16.46;100.00
19884;BME280;10104;50.732;10.174;2023-07-02T03:11:13;97101.13;;;16.46;100.00
19884;BME280;10104;50.732;10.174;2023-07-02T03:13:34;97108.91;;;16.47;100.00
19884;BME280;10104;50.732;10.174;2023-07-02T03:15:56;97104.03;;;16.44;100.00
19884;BME280;10104;50.732;10.174;2023-07-02T03:18:17;97114.66;;;16.39;100.00
19884;BME280;10104;50.732;10.174;2023-07-02T03:20:39;97112.19;;;16.54;100.00
19884;BME280;10104;50.732;10.174;2023-07-02T03:23:01;97106.06;;;16.54;100.00
19884;BME280;10104;50.732;10.174;2023-07-02T03:25:22;97118.44;;;16.43;100.00
19884;BME280;10104;50.732;10.174;2023-07-02T03:27:44;97119.84;;;16.46;100.00
19884;BME280;10104;50.732;10.174;2023-07-02T03:30:06;97116.00;;;16.42;100.00
19884;BME280;10104;50.732;10.174;2023-07-02T03:32:28;97115.72;;;16.38;100.00
19884;BME280;10104;50.732;10.174;2023-07-02T03:34:49;97117.72;;;16.48;100.00
19884;BME280;10104;50.732;10.174;2023-07-02T03:37:11;97113.75;;;16.50;100.00
19884;BME280;10104;50.732;10.174;2023-07-02T03:39:32;97111.59;;;16.47;100.00
19884;BME280;10104;50.732;10.174;2023-07-02T03:41:54;97123.47;;;16.40;100.00
19884;BME280;10104;50.732;10.174;2023-07-02T03:44:16;97115.78;;;16.27;100.00
19884;BME280;10104;50.732;10.174;2023-07-02T03:46:38;97128.31;;;16.43;100.00
19884;BME280;10104;50.732;10.174;2023-07-02T03:48:59;97130.69;;;16.39;100.00
19884;BME280;10104;50.732;10.174;2023-07-02T03:51:21;97132.78;;;16.37;100.00
19884;BME280;10104;50.732;10.174;2023-07-02T03:53:42;97133.84;;;16.36;100.00
19884;BME280;10104;50.732;10.174;2023-07-02T03:56:04;97137.38;;;16.42;100.00
19884;BME280;10104;50.732;10.174;2023-07-02T03:58:25;97143.81;;;16.41;100.00
19884;BME280;10104;50.732;10.174;2023-07-02T04:00:47;97137.38;;;16.42;100.00
19884;BME280;10104;50.732;10.174;2023-07-02T04:03:11;97137.16;;;16.43;100.00
19884;BME280;10104;50.732;10.174;2023-07-02T04:05:33;97143.53;;;16.42;100.00
19884;BME280;10104;50.732;10.174;2023-07-02T04:07:54;97134.47;;;16.43;100.00
19884;BME280;10104;50.732;10.174;2023-07-02T04:10:16;97151.25;;;16.55;100.00
19884;BME280;10104;50.732;10.174;2023-07-02T04:12:37;97147.91;;;16.48;100.00
19884;BME280;10104;50.732;10.174;2023-07-02T04:14:59;97153.53;;;16.47;100.00
19884;BME280;10104;50.732;10.174;2023-07-02T04:17:20;97156.69;;;16.61;100.00
19884;BME280;10104;50.732;10.174;2023-07-02T04:19:42;97163.66;;;16.62;100.00
19884;BME280;10104;50.732;10.174;2023-07-02T04:22:04;97158.88;;;16.64;100.00
19884;BME280;10104;50.732;10.174;2023-07-02T04:24:25;97152.97;;;16.62;100.00
19884;BME280;10104;50.732;10.174;2023-07-02T04:26:47;97152.00;;;16.68;100.00
19884;BME280;10104;50.732;10.174;2023-07-02T04:29:29;97154.84;;;16.78;100.00
19884;BME280;10104;50.732;10.174;2023-07-02T04:31:50;97154.78;;;16.94;100.00
19884;BME280;10104;50.732;10.174;2023-07-02T04:34:12;97156.19;;;16.97;100.00
19884;BME280;10104;50.732;10.174;2023-07-02T04:36:33;97157.41;;;17.11;100.00
19884;BME280;10104;50.732;10.174;2023-07-02T04:38:55;97158.41;;;17.05;100.00
19884;BME280;10104;50.732;10.174;2023-07-02T04:41:19;97160.78;;;17.02;99.97
19884;BME280;10104;50.732;10.174;2023-07-02T04:43:40;97163.13;;;16.98;98.34
19884;BME280;10104;50.732;10.174;2023-07-02T04:46:02;97159.84;;;17.13;98.46
19884;BME280;10104;50.732;10.174;2023-07-02T04:48:24;97164.50;;;17.22;97.49
19884;BME280;10104;50.732;10.174;2023-07-02T04:50:45;97159.78;;;17.29;96.94
19884;BME280;10104;50.732;10.174;2023-07-02T04:53:07;97155.41;;;17.40;95.59
19884;BME280;10104;50.732;10.174;2023-07-02T04:55:29;97156.97;;;17.41;95.38
19884;BME280;10104;50.732;10.174;2023-07-02T04:57:50;97157.94;;;17.52;95.28
19884;BME280;10104;50.732;10.174;2023-07-02T05:00:12;97165.34;;;17.45;95.58
19884;BME280;10104;50.732;10.174;2023-07-02T05:02:34;97173.81;;;17.36;95.30
19884;BME280;10104;50.732;10.174;2023-07-02T05:04:55;97170.06;;;17.37;95.73
19884;BME280;10104;50.732;10.174;2023-07-02T05:07:17;97171.53;;;17.28;96.57
19884;BME280;10104;50.732;10.174;2023-07-02T05:09:39;97172.75;;;17.37;96.78
19884;BME280;10104;50.732;10.174;2023-07-02T05:12:00;97162.66;;;17.23;96.74
19884;BME280;10104;50.732;10.174;2023-07-02T05:14:22;97168.09;;;17.28;97.21
19884;BME280;10104;50.732;10.174;2023-07-02T05:16:44;97173.69;;;17.26;98.29
19884;BME280;10104;50.732;10.174;2023-07-02T05:19:05;97173.34;;;17.23;97.48
19884;BME280;10104;50.732;10.174;2023-07-02T05:21:27;97162.41;;;17.24;97.73
19884;BME280;10104;50.732;10.174;2023-07-02T05:23:48;97161.47;;;17.14;97.57
19884;BME280;10104;50.732;10.174;2023-07-02T05:26:10;97168.94;;;17.12;97.48
19884;BME280;10104;50.732;10.174;2023-07-02T05:28:31;97169.09;;;17.05;98.20
19884;BME280;10104;50.732;10.174;2023-07-02T05:30:53;97177.81;;;16.95;96.81
19884;BME280;10104;50.732;10.174;2023-07-02T05:33:15;97170.50;;;17.08;97.48
19884;BME280;10104;50.732;10.174;2023-07-02T05:35:36;97173.47;;;17.11;96.28
19884;BME280;10104;50.732;10.174;2023-07-02T05:37:58;97167.56;;;17.09;96.94
19884;BME280;10104;50.732;10.174;2023-07-02T05:40:19;97169.50;;;17.14;95.21
19884;BME280;10104;50.732;10.174;2023-07-02T05:42:41;97172.41;;;17.12;94.14
19884;BME280;10104;50.732;10.174;2023-07-02T05:45:04;97178.03;;;17.32;93.92
19884;BME280;10104;50.732;10.174;2023-07-02T05:47:25;97177.16;;;17.49;92.46
19884;BME280;10104;50.732;10.174;2023-07-02T05:49:50;97182.03;;;17.52;91.47
19884;BME280;10104;50.732;10.174;2023-07-02T05:52:12;97186.03;;;17.71;91.75
19884;BME280;10104;50.732;10.174;2023-07-02T05:54:33;97192.75;;;17.73;90.79
19884;BME280;10104;50.732;10.174;2023-07-02T05:56:55;97174.38;;;17.82;90.62
19884;BME280;10104;50.732;10.174;2023-07-02T05:59:16;97181.75;;;17.97;89.07
19884;BME280;10104;50.732;10.174;2023-07-02T06:01:40;97190.34;;;17.99;89.06
19884;BME280;10104;50.732;10.174;2023-07-02T06:04:05;97191.66;;;17.96;89.65
19884;BME280;10104;50.732;10.174;2023-07-02T06:06:26;97197.56;;;17.98;88.80
19884;BME280;10104;50.732;10.174;2023-07-02T06:08:48;97203.31;;;17.85;88.51
19884;BME280;10104;50.732;10.174;2023-07-02T06:11:10;97220.69;;;18.04;87.59
19884;BME280;10104;50.732;10.174;2023-07-02T06:13:31;97220.44;;;18.33;88.22
19884;BME280;10104;50.732;10.174;2023-07-02T06:15:53;97216.44;;;18.62;87.21
19884;BME280;10104;50.732;10.174;2023-07-02T06:18:14;97219.66;;;19.01;86.15
19884;BME280;10104;50.732;10.174;2023-07-02T06:20:37;97236.06;;;19.05;83.52
19884;BME280;10104;50.732;10.174;2023-07-02T06:22:59;97227.03;;;18.79;82.39
19884;BME280;10104;50.732;10.174;2023-07-02T06:25:21;97231.50;;;18.68;82.42
19884;BME280;10104;50.732;10.174;2023-07-02T06:27:42;97236.06;;;18.68;84.76
19884;BME280;10104;50.732;10.174;2023-07-02T06:30:04;97232.75;;;18.55;81.49
19884;BME280;10104;50.732;10.174;2023-07-02T06:32:26;97222.03;;;18.61;83.93
19884;BME280;10104;50.732;10.174;2023-07-02T06:34:47;97215.66;;;18.67;82.60
19884;BME280;10104;50.732;10.174;2023-07-02T06:37:09;97219.78;;;18.52;82.80
19884;BME280;10104;50.732;10.174;2023-07-02T06:39:31;97226.59;;;18.33;84.76
19884;BME280;10104;50.732;10.174;2023-07-02T06:41:52;97219.47;;;18.17;87.08
19884;BME280;10104;50.732;10.174;2023-07-02T06:44:13;97220.31;;;18.23;88.31
19884;BME280;10104;50.732;10.174;2023-07-02T06:46:35;97212.41;;;18.33;85.67
19884;BME280;10104;50.732;10.174;2023-07-02T06:48:57;97216.19;;;18.37;86.95
19884;BME280;10104;50.732;10.174;2023-07-02T06:51:18;97227.50;;;18.44;87.24
19884;BME280;10104;50.732;10.174;2023-07-02T06:53:41;97232.31;;;18.69;85.11
19884;BME280;10104;50.732;10.174;2023-07-02T06:56:03;97231.13;;;18.91;79.99
19884;BME280;10104;50.732;10.174;2023-07-02T06:58:24;97249.03;;;19.18;80.00
19884;BME280;10104;50.732;10.174;2023-07-02T07:00:46;97227.97;;;19.42;76.82
19884;BME280;10104;50.732;10.174;2023-07-02T07:03:08;97231.72;;;19.40;76.36
19884;BME280;10104;50.732;10.174;2023-07-02T07:05:33;97241.84;;;19.70;77.74
19884;BME280;10104;50.732;10.174;2023-07-02T07:07:54;97238.97;;;19.87;77.41
19884;BME280;10104;50.732;10.174;2023-07-02T07:10:16;97255.47;;;19.54;76.67
19884;BME280;10104;50.732;10.174;2023-07-02T07:12:37;97246.41;;;19.75;76.66
19884;BME280;10104;50.732;10.174;2023-07-02T07:14:59;97245.28;;;19.61;77.49
19884;BME280;10104;50.732;10.174;2023-07-02T07:17:20;97249.25;;;19.48;77.56
19884;BME280;10104;50.732;10.174;2023-07-02T07:19:42;97256.28;;;19.54;76.78
19884;BME280;10104;50.732;10.174;2023-07-02T07:22:03;97252.59;;;19.75;76.73
19884;BME280;10104;50.732;10.174;2023-07-02T07:24:25;97256.31;;;19.64;77.26
19884;BME280;10104;50.732;10.174;2023-07-02T07:26:46;97248.31;;;19.32;77.25
19884;BME280;10104;50.732;10.174;2023-07-02T07:29:08;97255.25;;;19.65;75.81
19884;BME280;10104;50.732;10.174;2023-07-02T07:31:30;97258.28;;;19.84;74.09
19884;BME280;10104;50.732;10.174;2023-07-02T07:33:51;97258.16;;;20.31;71.31
19884;BME280;10104;50.732;10.174;2023-07-02T07:36:13;97251.22;;;20.35;73.25
19884;BME280;10104;50.732;10.174;2023-07-02T07:38:35;97264.06;;;20.18;70.99
19884;BME280;10104;50.732;10.174;2023-07-02T07:40:56;97258.81;;;19.81;72.65
19884;BME280;10104;50.732;10.174;2023-07-02T07:43:18;97261.63;;;20.11;74.01
19884;BME280;10104;50.732;10.174;2023-07-02T07:45:39;97268.69;;;20.38;70.93
19884;BME280;10104;50.732;10.174;2023-07-02T07:48:01;97250.41;;;20.50;69.34
19884;BME280;10104;50.732;10.174;2023-07-02T07:50:23;97250.41;;;20.50;69.76
19884;BME280;10104;50.732;10.174;2023-07-02T07:52:45;97264.16;;;20.64;67.66
19884;BME280;10104;50.732;10.174;2023-07-02T07:55:07;97269.25;;;20.40;68.95
19884;BME280;10104;50.732;10.174;2023-07-02T07:57:28;97274.00;;;20.17;69.02
19884;BME280;10104;50.732;10.174;2023-07-02T07:59:50;97267.41;;;20.71;69.69
19884;BME280;10104;50.732;10.174;2023-07-02T08:02:11;97270.59;;;20.57;69.16
19884;BME280;10104;50.732;10.174;2023-07-02T08:04:33;97271.69;;;20.51;67.57
19884;BME280;10104;50.732;10.174;2023-07-02T08:06:55;97277.56;;;20.43;68.79
19884;BME280;10104;50.732;10.174;2023-07-02T08:09:18;97289.19;;;20.54;69.18
19884;BME280;10104;50.732;10.174;2023-07-02T08:11:39;97291.31;;;20.52;67.92
19884;BME280;10104;50.732;10.174;2023-07-02T08:14:01;97288.13;;;20.65;66.96
19884;BME280;10104;50.732;10.174;2023-07-02T08:16:22;97303.97;;;20.51;67.92
19884;BME280;10104;50.732;10.174;2023-07-02T08:18:44;97301.53;;;20.50;67.16
19884;BME280;10104;50.732;10.174;2023-07-02T08:21:06;97298.59;;;20.56;67.63
19884;BME280;10104;50.732;10.174;2023-07-02T08:23:30;97298.09;;;20.95;65.45
19884;BME280;10104;50.732;10.174;2023-07-02T08:25:51;97298.94;;;21.16;65.50
19884;BME280;10104;50.732;10.174;2023-07-02T08:28:13;97309.13;;;20.98;63.32
19884;BME280;10104;50.732;10.174;2023-07-02T08:30:34;97303.75;;;21.14;61.61
19884;BME280;10104;50.732;10.174;2023-07-02T08:32:56;97297.25;;;20.74;60.87
19884;BME280;10104;50.732;10.174;2023-07-02T08:35:17;97313.44;;;20.99;61.41
19884;BME280;10104;50.732;10.174;2023-07-02T08:37:39;97321.50;;;21.05;62.34
19884;BME280;10104;50.732;10.174;2023-07-02T08:40:04;97327.13;;;20.68;63.41
19884;BME280;10104;50.732;10.174;2023-07-02T08:42:26;97324.72;;;20.61;61.67
19884;BME280;10104;50.732;10.174;2023-07-02T08:44:53;97332.53;;;20.83;65.31
19884;BME280;10104;50.732;10.174;2023-07-02T08:47:15;97333.31;;;20.63;63.34
19884;BME280;10104;50.732;10.174;2023-07-02T08:49:37;97332.03;;;20.91;63.21
19884;BME280;10104;50.732;10.174;2023-07-02T08:51:58;97329.88;;;21.23;62.90
19884;BME280;10104;50.732;10.174;2023-07-02T08:54:20;97329.81;;;21.79;59.77
19884;BME280;10104;50.732;10.174;2023-07-02T08:56:42;97330.91;;;21.83;56.90
19884;BME280;10104;50.732;10.174;2023-07-02T08:59:06;97334.06;;;22.10;59.74
19884;BME280;10104;50.732;10.174;2023-07-02T09:01:28;97334.63;;;21.97;56.87
19884;BME280;10104;50.732;10.174;2023-07-02T09:03:49;97341.41;;;21.79;59.14
19884;BME280;10104;50.732;10.174;2023-07-02T09:06:12;97338.22;;;21.52;58.05
19884;BME280;10104;50.732;10.174;2023-07-02T09:08:35;97339.59;;;21.45;58.71
19884;BME280;10104;50.732;10.174;2023-07-02T09:13:28;97347.94;;;21.43;61.19
19884;BME280;10104;50.732;10.174;2023-07-02T09:15:50;97339.25;;;21.82;58.87
19884;BME280;10104;50.732;10.174;2023-07-02T09:18:29;97343.78;;;21.91;55.91
19884;BME280;10104;50.732;10.174;2023-07-02T09:20:52;97334.66;;;21.82;56.12
19884;BME280;10104;50.732;10.174;2023-07-02T09:23:15;97341.13;;;22.01;56.84
19884;BME280;10104;50.732;10.174;2023-07-02T09:25:38;97355.34;;;22.17;55.11
19884;BME280;10104;50.732;10.174;2023-07-02T09:28:00;97342.56;;;22.43;55.93
19884;BME280;10104;50.732;10.174;2023-07-02T09:30:21;97336.25;;;21.98;54.79
19884;BME280;10104;50.732;10.174;2023-07-02T09:32:44;97334.13;;;21.80;54.73
19884;BME280;10104;50.732;10.174;2023-07-02T09:35:09;97332.25;;;21.75;55.31
19884;BME280;10104;50.732;10.174;2023-07-02T09:37:31;97341.69;;;21.83;57.36
19884;BME280;10104;50.732;10.174;2023-07-02T09:39:53;97348.75;;;21.38;57.50
19884;BME280;10104;50.732;10.174;2023-07-02T09:42:16;97347.63;;;20.99;58.63
19884;BME280;10104;50.732;10.174;2023-07-02T09:44:41;97339.81;;;20.82;59.50
19884;BME280;10104;50.732;10.174;2023-07-02T09:47:06;97345.47;;;21.06;60.43
19884;BME280;10104;50.732;10.174;2023-07-02T09:49:31;97349.03;;;21.47;60.92
19884;BME280;10104;50.732;10.174;2023-07-02T09:51:53;97343.84;;;21.61;54.76
19884;BME280;10104;50.732;10.174;2023-07-02T09:54:15;97356.25;;;21.77;56.01
19884;BME280;10104;50.732;10.174;2023-07-02T09:56:36;97365.97;;;21.78;55.82
19884;BME280;10104;50.732;10.174;2023-07-02T09:58:58;97350.91;;;21.26;53.52
19884;BME280;10104;50.732;10.174;2023-07-02T10:01:19;97341.69;;;20.77;53.63
19884;BME280;10104;50.732;10.174;2023-07-02T10:03:41;97352.19;;;20.83;54.52
19884;BME280;10104;50.732;10.174;2023-07-02T10:06:06;97350.34;;;21.14;55.58
19884;BME280;10104;50.732;10.174;2023-07-02T10:08:28;97356.28;;;21.21;54.29
19884;BME280;10104;50.732;10.174;2023-07-02T10:10:51;97360.81;;;21.06;55.66
19884;BME280;10104;50.732;10.174;2023-07-02T10:13:13;97367.56;;;21.13;54.46
19884;BME280;10104;50.732;10.174;2023-07-02T10:15:35;97353.88;;;21.35;55.44
19884;BME280;10104;50.732;10.174;2023-07-02T10:18:01;97371.63;;;21.61;52.95
19884;BME280;10104;50.732;10.174;2023-07-02T10:20:40;97349.28;;;21.51;52.63
19884;BME280;10104;50.732;10.174;2023-07-02T10:23:06;97341.09;;;22.06;51.83
19884;BME280;10104;50.732;10.174;2023-07-02T10:25:29;97349.66;;;22.24;50.91
19884;BME280;10104;50.732;10.174;2023-07-02T10:27:52;97344.41;;;22.52;49.53
19884;BME280;10104;50.732;10.174;2023-07-02T10:30:14;97339.44;;;22.75;50.23
19884;BME280;10104;50.732;10.174;2023-07-02T10:32:36;97348.56;;;22.84;49.65
19884;BME280;10104;50.732;10.174;2023-07-02T10:35:13;97335.84;;;23.23;49.35
19884;BME280;10104;50.732;10.174;2023-07-02T10:37:35;97334.50;;;23.26;47.64
19884;BME280;10104;50.732;10.174;2023-07-02T10:39:58;97333.25;;;23.42;47.59
19884;BME280;10104;50.732;10.174;2023-07-02T10:42:19;97339.88;;;23.26;47.15
19884;BME280;10104;50.732;10.174;2023-07-02T10:44:50;97339.97;;;23.50;45.55
19884;BME280;10104;50.732;10.174;2023-07-02T10:47:11;97330.72;;;23.22;45.78
19884;BME280;10104;50.732;10.174;2023-07-02T10:49:33;97333.19;;;23.18;45.87
19884;BME280;10104;50.732;10.174;2023-07-02T10:52:04;97323.84;;;22.62;46.30
19884;BME280;10104;50.732;10.174;2023-07-02T10:54:25;97330.00;;;22.13;48.19
19884;BME280;10104;50.732;10.174;2023-07-02T10:56:47;97327.25;;;22.23;48.32
19884;BME280;10104;50.732;10.174;2023-07-02T10:59:09;97340.13;;;21.47;48.93
19884;BME280;10104;50.732;10.174;2023-07-02T11:01:31;97342.25;;;21.50;50.93
19884;BME280;10104;50.732;10.174;2023-07-02T11:04:00;97333.66;;;21.32;50.98
19884;BME280;10104;50.732;10.174;2023-07-02T11:06:22;97326.09;;;21.60;51.34
19884;BME280;10104;50.732;10.174;2023-07-02T11:08:44;97339.22;;;21.87;50.71
19884;BME280;10104;50.732;10.174;2023-07-02T11:11:07;97338.97;;;21.73;50.41
19884;BME280;10104;50.732;10.174;2023-07-02T11:13:29;97335.53;;;21.57;50.44
19884;BME280;10104;50.732;10.174;2023-07-02T11:15:50;97339.25;;;21.66;50.81
19884;BME280;10104;50.732;10.174;2023-07-02T11:18:14;97338.13;;;22.08;50.72
19884;BME280;10104;50.732;10.174;2023-07-02T11:20:35;97349.91;;;22.32;50.35
19884;BME280;10104;50.732;10.174;2023-07-02T11:22:57;97340.50;;;23.18;50.36
19884;BME280;10104;50.732;10.174;2023-07-02T11:25:20;97329.72;;;23.47;48.98
19884;BME280;10104;50.732;10.174;2023-07-02T11:27:42;97326.03;;;24.19;47.73
19884;BME280;10104;50.732;10.174;2023-07-02T11:30:05;97315.53;;;24.74;45.32
19884;BME280;10104;50.732;10.174;2023-07-02T11:32:26;97318.19;;;24.97;43.70
19884;BME280;10104;50.732;10.174;2023-07-02T11:34:53;97309.06;;;24.70;44.48
19884;BME280;10104;50.732;10.174;2023-07-02T11:37:15;97320.00;;;24.22;45.08
19884;BME280;10104;50.732;10.174;2023-07-02T11:39:36;97321.03;;;24.02;45.43
19884;BME280;10104;50.732;10.174;2023-07-02T11:41:58;97322.53;;;24.37;45.35
19884;BME280;10104;50.732;10.174;2023-07-02T11:44:19;97334.00;;;24.29;44.79
19884;BME280;10104;50.732;10.174;2023-07-02T11:46:41;97331.00;;;24.07;45.14
19884;BME280;10104;50.732;10.174;2023-07-02T11:49:04;97343.50;;;23.50;44.88
19884;BME280;10104;50.732;10.174;2023-07-02T11:51:25;97334.31;;;23.75;45.04
19884;BME280;10104;50.732;10.174;2023-07-02T11:53:47;97328.91;;;23.75;45.66
19884;BME280;10104;50.732;10.174;2023-07-02T11:56:08;97334.94;;;23.67;45.62
19884;BME280;10104;50.732;10.174;2023-07-02T11:58:30;97341.00;;;23.54;45.88
19884;BME280;10104;50.732;10.174;2023-07-02T12:00:52;97333.84;;;23.68;46.13
19884;BME280;10104;50.732;10.174;2023-07-02T12:03:13;97328.13;;;23.74;44.98
19884;BME280;10104;50.732;10.174;2023-07-02T12:05:35;97323.53;;;23.41;46.18
19884;BME280;10104;50.732;10.174;2023-07-02T12:07:56;97331.16;;;23.92;46.09
19884;BME280;10104;50.732;10.174;2023-07-02T12:10:18;97317.03;;;25.50;44.37
19884;BME280;10104;50.732;10.174;2023-07-02T12:12:39;97318.00;;;25.86;41.91
19884;BME280;10104;50.732;10.174;2023-07-02T12:15:01;97317.63;;;25.79;41.45
19884;BME280;10104;50.732;10.174;2023-07-02T12:17:23;97314.69;;;25.75;41.01
19884;BME280;10104;50.732;10.174;2023-07-02T12:19:45;97324.75;;;25.61;41.70
19884;BME280;10104;50.732;10.174;2023-07-02T12:22:07;97328.09;;;25.21;42.03